Time;durP1;ratioP1;P1;durP2;ratioP2;P2;SDS_P1;SDS_P2;PMS_P1;PMS_P2;Temp;Humidity;BMP_temperature;BMP_pressure;BME280_temperature;BME280_humidity;BME280_pressure;Samples;Min_cycle;Max_cycle;Signal;HPM_P1;HPM_P2
2023/03/27 00:02:00;;;;;;;;;;;;;;;15.10;32.13;98008.94;5087642;28;19928;-79
2023/03/27 00:04:27;;;;;;;;;;;;;;;15.08;32.16;98001.22;5077101;28;20383;-79
2023/03/27 00:06:53;;;;;;;;;;;;;;;15.06;32.28;97991.88;5095348;28;19926;-79
2023/03/27 00:09:20;;;;;;;;;;;;;;;15.06;32.27;97990.06;5060543;28;19955;-79
2023/03/27 00:11:46;;;;;;;;;;;;;;;15.06;32.30;97997.13;5076481;28;19923;-79
2023/03/27 00:14:12;;;;;;;;;;;;;;;15.02;32.43;97991.38;5094530;28;19916;-79
2023/03/27 00:16:37;;;;;;;;;;;;;;;15.00;32.42;97996.78;5087718;28;19919;-79
2023/03/27 00:19:02;;;;;;;;;;;;;;;14.98;32.48;97979.56;5096995;28;19916;-79
2023/03/27 00:21:28;;;;;;;;;;;;;;;14.95;32.75;97975.44;5097167;28;20307;-79
2023/03/27 00:23:55;;;;;;;;;;;;;;;14.92;32.78;97972.31;5097321;28;19977;-79
2023/03/27 00:26:20;;;;;;;;;;;;;;;14.91;32.67;97979.41;5115686;28;20385;-79
2023/03/27 00:28:46;;;;;;;;;;;;;;;14.91;32.79;97968.03;5097344;28;19919;-79
2023/03/27 00:31:11;;;;;;;;;;;;;;;14.91;32.72;97970.66;5096984;28;19927;-79
2023/03/27 00:33:37;;;;;;;;;;;;;;;14.91;32.52;97968.88;5096648;28;19916;-78
2023/03/27 00:36:02;;;;;;;;;;;;;;;14.90;32.44;97972.47;5096882;28;19922;-79
2023/03/27 00:38:28;;;;;;;;;;;;;;;14.90;32.39;97969.84;5097011;28;20394;-79
2023/03/27 00:40:54;;;;;;;;;;;;;;;14.91;32.37;97970.66;5079894;28;19919;-79
2023/03/27 00:43:25;;;;;;;;;;;;;;;14.91;32.41;97974.13;5097206;28;20306;-78
2023/03/27 00:45:51;;;;;;;;;;;;;;;14.93;32.16;97977.41;5079909;28;19938;-78
2023/03/27 00:48:18;;;;;;;;;;;;;;;14.93;31.95;97982.66;5079483;28;19977;-78
2023/03/27 00:50:43;;;;;;;;;;;;;;;14.93;32.11;97977.41;5079928;28;19916;-77
2023/03/27 00:53:09;;;;;;;;;;;;;;;14.95;31.97;97978.06;5096628;28;19916;-75
2023/03/27 00:55:35;;;;;;;;;;;;;;;14.95;32.01;97967.56;5095718;28;20402;-76
2023/03/27 00:58:03;;;;;;;;;;;;;;;14.96;32.21;97968.38;5079625;28;19915;-80
2023/03/27 01:00:28;;;;;;;;;;;;;;;14.97;32.26;97962.13;5079519;28;19916;-81
2023/03/27 01:02:54;;;;;;;;;;;;;;;14.98;32.16;97955.91;5079599;28;19916;-81
2023/03/27 01:05:19;;;;;;;;;;;;;;;14.98;32.33;97961.16;5079388;28;19922;-80
2023/03/27 01:07:45;;;;;;;;;;;;;;;14.97;32.25;97952.44;5079358;28;19968;-81
2023/03/27 01:10:10;;;;;;;;;;;;;;;14.97;32.36;97955.06;5069130;28;19927;-80
2023/03/27 01:12:42;;;;;;;;;;;;;;;14.95;32.40;97949.16;5084914;28;19920;-81
2023/03/27 01:15:16;;;;;;;;;;;;;;;14.95;32.50;97945.72;5114182;28;20019;-80
2023/03/27 01:17:48;;;;;;;;;;;;;;;14.95;32.56;97941.28;5095920;28;19916;-80
2023/03/27 01:20:31;;;;;;;;;;;;;;;14.96;32.55;97942.94;5095851;28;19943;-80
2023/03/27 01:23:15;;;;;;;;;;;;;;;14.95;32.61;97937.84;5114195;28;19922;-79
2023/03/27 01:25:40;;;;;;;;;;;;;;;14.93;32.93;97930.13;5095035;28;20306;-79
2023/03/27 01:28:27;;;;;;;;;;;;;;;14.92;32.77;97931.09;5114381;28;19920;-79
2023/03/27 01:31:16;;;;;;;;;;;;;;;14.91;32.83;97932.09;5095790;28;19970;-80
2023/03/27 01:33:41;;;;;;;;;;;;;;;14.90;33.00;97937.50;5082239;28;19916;-80
2023/03/27 01:36:13;;;;;;;;;;;;;;;14.90;33.12;97937.50;5113777;28;19973;-81
2023/03/27 01:38:38;;;;;;;;;;;;;;;14.87;33.07;97922.88;5114074;28;20014;-81
2023/03/27 01:41:07;;;;;;;;;;;;;;;14.87;33.11;97922.88;5095387;28;20374;-81
2023/03/27 01:43:44;;;;;;;;;;;;;;;14.88;32.95;97915.81;5113620;28;19919;-81
2023/03/27 01:46:22;;;;;;;;;;;;;;;14.89;32.88;97910.38;5078676;28;20024;-80
2023/03/27 01:48:59;;;;;;;;;;;;;;;14.90;32.88;97913.88;5095681;28;19916;-80
2023/03/27 01:51:26;;;;;;;;;;;;;;;14.90;32.91;97921.75;5095646;28;19916;-80
2023/03/27 01:53:55;;;;;;;;;;;;;;;14.89;32.80;97907.75;5078023;28;19962;-81
2023/03/27 01:56:30;;;;;;;;;;;;;;;14.91;32.93;97918.13;5078433;28;19938;-81
2023/03/27 01:59:02;;;;;;;;;;;;;;;14.91;32.79;97915.47;5096911;28;19923;-81
2023/03/27 02:01:30;;;;;;;;;;;;;;;14.92;32.75;97904.00;5096215;28;20378;-81
2023/03/27 02:03:56;;;;;;;;;;;;;;;14.92;32.66;97912.69;5078331;28;19916;-81
2023/03/27 02:06:29;;;;;;;;;;;;;;;14.92;32.65;97906.63;5085370;28;19920;-81
2023/03/27 02:08:59;;;;;;;;;;;;;;;14.92;32.72;97901.38;5067241;28;20011;-81
2023/03/27 02:11:25;;;;;;;;;;;;;;;14.92;32.41;97907.44;5075506;28;19912;-81
2023/03/27 02:13:52;;;;;;;;;;;;;;;14.91;32.66;97899.72;5074920;28;19917;-81
2023/03/27 02:16:18;;;;;;;;;;;;;;;14.91;32.56;97899.72;5058005;28;20045;-81
2023/03/27 02:18:47;;;;;;;;;;;;;;;14.89;32.50;97904.31;5075133;28;20296;-81
2023/03/27 02:21:13;;;;;;;;;;;;;;;14.88;32.46;97889.53;5057468;28;19927;-80
2023/03/27 02:23:39;;;;;;;;;;;;;;;14.86;32.43;97881.00;5058031;28;19920;-80
2023/03/27 02:26:04;;;;;;;;;;;;;;;14.83;32.59;97869.00;5058292;28;19959;-80
2023/03/27 02:28:35;;;;;;;;;;;;;;;14.84;32.54;97876.72;5058064;28;19959;-80
2023/03/27 02:31:19;;;;;;;;;;;;;;;14.83;32.75;97875.09;5092821;28;19924;-80
2023/03/27 02:33:50;;;;;;;;;;;;;;;14.83;32.75;97877.72;5092820;28;20348;-80
2023/03/27 02:36:28;;;;;;;;;;;;;;;14.82;33.08;97872.66;5076558;28;19916;-80
2023/03/27 02:38:53;;;;;;;;;;;;;;;14.80;33.02;97872.81;5097094;28;19923;-80
2023/03/27 02:41:22;;;;;;;;;;;;;;;14.79;33.19;97871.16;5078757;28;19920;-79
2023/03/27 02:44:13;;;;;;;;;;;;;;;14.78;33.08;97873.94;5097077;28;19920;-81
2023/03/27 02:46:43;;;;;;;;;;;;;;;14.77;33.40;97869.66;5072941;28;19920;-80
2023/03/27 02:49:10;;;;;;;;;;;;;;;14.74;33.19;97857.69;5079149;28;19963;-81
2023/03/27 02:51:38;;;;;;;;;;;;;;;14.75;33.33;97853.25;5062415;28;19990;-81
2023/03/27 02:54:03;;;;;;;;;;;;;;;14.73;33.28;97857.88;5061543;28;20014;-81
2023/03/27 02:56:30;;;;;;;;;;;;;;;14.73;33.49;97855.25;5096646;28;20447;-80
2023/03/27 02:59:02;;;;;;;;;;;;;;;14.72;33.45;97854.44;5096663;28;19923;-80
2023/03/27 03:01:31;;;;;;;;;;;;;;;14.70;33.31;97852.94;5062302;28;19916;-80
2023/03/27 03:04:00;;;;;;;;;;;;;;;14.68;33.45;97853.09;5078929;28;19916;-81
2023/03/27 03:06:28;;;;;;;;;;;;;;;14.67;33.55;97854.06;5078505;28;20367;-80
2023/03/27 03:09:06;;;;;;;;;;;;;;;14.65;33.55;97851.63;5078759;28;19917;-80
2023/03/27 03:11:43;;;;;;;;;;;;;;;14.62;33.78;97851.13;5062815;28;19973;-80
2023/03/27 03:14:08;;;;;;;;;;;;;;;14.60;33.95;97835.53;5078477;28;19916;-80
2023/03/27 03:16:34;;;;;;;;;;;;;;;14.59;33.90;97838.28;5061268;28;19927;-81
2023/03/27 03:19:00;;;;;;;;;;;;;;;14.54;33.93;97830.91;5096169;28;19916;-80
2023/03/27 03:21:25;;;;;;;;;;;;;;;14.55;34.27;97829.09;5078072;28;20345;-80
2023/03/27 03:23:50;;;;;;;;;;;;;;;14.53;34.16;97831.06;5061289;28;19974;-81
2023/03/27 03:26:15;;;;;;;;;;;;;;;14.47;34.34;97825.50;5060985;28;19951;-81
2023/03/27 03:28:42;;;;;;;;;;;;;;;14.45;34.53;97819.59;5096045;28;20006;-81
2023/03/27 03:31:09;;;;;;;;;;;;;;;14.41;34.64;97820.91;5060921;28;19992;-80
2023/03/27 03:33:35;;;;;;;;;;;;;;;14.37;34.73;97816.94;5078233;28;19920;-79
2023/03/27 03:36:00;;;;;;;;;;;;;;;14.34;34.87;97814.66;5097000;28;19938;-79
2023/03/27 03:38:29;;;;;;;;;;;;;;;14.33;35.02;97809.56;5061208;28;19955;-77
2023/03/27 03:40:55;;;;;;;;;;;;;;;14.30;35.31;97811.53;5061122;28;20431;-82
2023/03/27 03:43:21;;;;;;;;;;;;;;;14.30;35.38;97810.72;5077831;28;19916;-80
2023/03/27 03:45:46;;;;;;;;;;;;;;;14.34;41.43;97812.03;5061135;28;20342;-73
2023/03/27 03:48:12;;;;;;;;;;;;;;;14.35;41.59;97815.50;5094615;28;19963;-73
2023/03/27 03:50:37;;;;;;;;;;;;;;;14.31;41.46;97812.38;5077366;28;19927;-77
2023/03/27 03:53:02;;;;;;;;;;;;;;;14.27;41.88;97811.88;5060368;28;19916;-77
2023/03/27 03:55:28;;;;;;;;;;;;;;;14.28;42.01;97812.72;5077852;28;20345;-77
2023/03/27 03:57:54;;;;;;;;;;;;;;;14.38;47.48;97807.28;5060513;28;19916;-77
2023/03/27 04:00:21;;;;;;;;;;;;;;;14.59;57.26;97807.59;5060742;28;19923;-78
2023/03/27 04:02:48;;;;;;;;;;;;;;;14.62;49.34;97807.28;5077526;28;19969;-77
2023/03/27 04:05:13;;;;;;;;;;;;;;;14.60;47.59;97808.47;5077017;28;20375;-75
2023/03/27 04:07:38;;;;;;;;;;;;;;;14.55;45.81;97797.56;5060130;28;19999;-77
2023/03/27 04:10:04;;;;;;;;;;;;;;;14.75;50.70;97798.91;5095249;28;19916;-76
2023/03/27 04:12:29;;;;;;;;;;;;;;;14.74;48.85;97801.72;5060232;28;19917;-79
2023/03/27 04:14:55;;;;;;;;;;;;;;;14.76;46.68;97792.66;5062939;28;20390;-75
2023/03/27 04:17:21;;;;;;;;;;;;;;;14.75;44.56;97791.03;5095374;28;20031;-82
2023/03/27 04:19:47;;;;;;;;;;;;;;;14.71;43.55;97794.19;5080747;28;19923;-83
2023/03/27 04:22:16;;;;;;;;;;;;;;;14.69;42.82;97791.72;5080028;28;19916;-83
2023/03/27 04:24:44;;;;;;;;;;;;;;;14.68;42.17;97807.63;5097459;28;19916;-81
2023/03/27 04:27:12;;;;;;;;;;;;;;;14.68;41.33;97803.19;5079436;28;19971;-81
2023/03/27 04:29:42;;;;;;;;;;;;;;;14.75;41.03;97804.16;5079643;28;19927;-80
2023/03/27 04:32:08;;;;;;;;;;;;;;;14.80;40.72;97804.50;5099336;28;19920;-80
2023/03/27 04:34:37;;;;;;;;;;;;;;;14.91;40.18;97799.88;5097096;28;19916;-81
2023/03/27 04:37:02;;;;;;;;;;;;;;;15.68;38.76;97805.34;5097516;28;20463;-81
2023/03/27 04:39:28;;;;;;;;;;;;;;;16.03;37.72;97789.22;5081620;28;19954;-81
2023/03/27 04:41:53;;;;;;;;;;;;;;;16.05;37.11;97793.31;5079441;28;19922;-83
2023/03/27 04:44:18;;;;;;;;;;;;;;;16.02;40.44;97792.84;5098048;28;19927;-82
2023/03/27 04:46:47;;;;;;;;;;;;;;;16.41;44.79;97790.09;5099852;28;19915;-82
2023/03/27 04:49:12;;;;;;;;;;;;;;;16.78;41.83;97790.25;5115922;28;19916;-85
2023/03/27 04:51:40;;;;;;;;;;;;;;;17.39;39.59;97790.09;5079579;28;19923;-83
2023/03/27 04:54:06;;;;;;;;;;;;;;;17.62;42.89;97775.97;5097026;28;19922;-80
2023/03/27 04:56:33;;;;;;;;;;;;;;;17.42;41.41;97771.25;5095907;28;19999;-87
2023/03/27 04:58:59;;;;;;;;;;;;;;;17.30;40.52;97773.56;5088141;28;20028;-78
2023/03/27 05:01:24;;;;;;;;;;;;;;;17.17;40.15;97766.31;5074406;28;20311;-83
2023/03/27 05:03:49;;;;;;;;;;;;;;;17.12;40.48;97766.00;5060099;28;19977;-84
2023/03/27 05:06:15;;;;;;;;;;;;;;;17.24;45.20;97761.13;5095435;28;19920;-75
2023/03/27 05:08:40;;;;;;;;;;;;;;;17.30;42.41;97759.53;5075468;28;19916;-75
2023/03/27 05:11:06;;;;;;;;;;;;;;;17.48;40.83;97754.69;5081998;28;19969;-75
2023/03/27 05:13:32;;;;;;;;;;;;;;;18.76;37.41;97760.16;5092627;28;19920;-76
2023/03/27 05:15:58;;;;;;;;;;;;;;;20.20;34.48;97750.56;5096113;28;19922;-75
2023/03/27 05:18:23;;;;;;;;;;;;;;;21.44;32.86;97752.59;5096333;28;19916;-74
2023/03/27 05:20:48;;;;;;;;;;;;;;;22.54;30.64;97757.69;5077174;28;19967;-75
2023/03/27 05:23:14;;;;;;;;;;;;;;;23.48;28.75;97754.06;5076059;28;20354;-74
2023/03/27 05:25:41;;;;;;;;;;;;;;;24.39;27.33;97751.34;5075695;28;19916;-75
2023/03/27 05:28:06;;;;;;;;;;;;;;;25.27;27.19;97746.91;5083191;28;19942;-75
2023/03/27 05:30:32;;;;;;;;;;;;;;;25.98;26.63;97753.88;5088504;28;20455;-74
2023/03/27 05:32:58;;;;;;;;;;;;;;;26.71;26.31;97754.03;5095860;28;20404;-75
2023/03/27 05:35:23;;;;;;;;;;;;;;;27.36;26.44;97757.84;5095850;28;19920;-74
2023/03/27 05:37:49;;;;;;;;;;;;;;;27.95;26.74;97746.44;5095937;28;19943;-79
2023/03/27 05:40:15;;;;;;;;;;;;;;;28.49;26.86;97740.16;5078907;28;19963;-72
2023/03/27 05:42:41;;;;;;;;;;;;;;;29.04;26.98;97731.94;5113450;28;19962;-72
2023/03/27 05:45:07;;;;;;;;;;;;;;;29.49;26.53;97741.25;5095765;28;19916;-73
2023/03/27 05:47:32;;;;;;;;;;;;;;;29.91;26.25;97750.25;5095911;28;19919;-72
2023/03/27 05:49:58;;;;;;;;;;;;;;;30.47;29.81;97753.00;5095482;28;19966;-78
2023/03/27 05:52:23;;;;;;;;;;;;;;;30.92;25.32;97739.72;5079005;28;19916;-71
2023/03/27 05:54:48;;;;;;;;;;;;;;;31.24;23.39;97729.66;5114106;28;20285;-71
2023/03/27 05:57:13;;;;;;;;;;;;;;;31.48;23.50;97724.41;5113453;28;20429;-72
2023/03/27 05:59:39;;;;;;;;;;;;;;;31.70;24.12;97730.22;5113158;28;19927;-72
2023/03/27 06:02:05;;;;;;;;;;;;;;;31.89;23.75;97724.97;5114175;28;19916;-72
2023/03/27 06:04:32;;;;;;;;;;;;;;;32.14;23.73;97723.22;5095510;28;19916;-71
2023/03/27 06:07:01;;;;;;;;;;;;;;;32.35;26.77;97714.94;5095551;28;20398;-79
2023/03/27 06:09:26;;;;;;;;;;;;;;;32.52;24.25;97706.41;5078728;28;19916;-75
2023/03/27 06:11:52;;;;;;;;;;;;;;;32.57;23.88;97704.44;5113101;28;19916;-74
2023/03/27 06:14:17;;;;;;;;;;;;;;;32.81;25.98;97704.50;5113383;28;19916;-73
2023/03/27 06:16:43;;;;;;;;;;;;;;;32.94;24.98;97711.09;5094922;28;19923;-72
2023/03/27 06:19:08;;;;;;;;;;;;;;;32.91;26.08;97702.75;5095675;28;19916;-73
2023/03/27 06:21:34;;;;;;;;;;;;;;;33.01;28.11;97705.34;5078149;28;19943;-75
2023/03/27 06:23:59;;;;;;;;;;;;;;;33.12;30.30;97706.81;5077949;28;19916;-72
2023/03/27 06:26:27;;;;;;;;;;;;;;;33.25;27.38;97686.41;5094811;28;19969;-76
2023/03/27 06:28:52;;;;;;;;;;;;;;;33.46;25.79;97688.84;5078263;28;19920;-72
2023/03/27 06:31:18;;;;;;;;;;;;;;;33.61;25.13;97688.63;5094422;28;20479;-72
2023/03/27 06:33:45;;;;;;;;;;;;;;;33.71;23.24;97685.78;5095113;28;19916;-75
2023/03/27 06:36:11;;;;;;;;;;;;;;;33.41;22.36;97691.63;5113191;28;19965;-73
2023/03/27 06:38:36;;;;;;;;;;;;;;;33.48;21.46;97684.75;5077905;28;19915;-77
2023/03/27 06:41:03;;;;;;;;;;;;;;;33.52;20.64;97679.56;5094463;28;19916;-77
2023/03/27 06:43:28;;;;;;;;;;;;;;;33.54;21.36;97685.47;5078344;28;19927;-74
2023/03/27 06:45:54;;;;;;;;;;;;;;;33.59;20.94;97679.19;5113308;28;19912;-75
2023/03/27 06:48:19;;;;;;;;;;;;;;;33.59;20.16;97671.06;5077925;28;19924;-72
2023/03/27 06:50:45;;;;;;;;;;;;;;;33.63;20.22;97659.34;5111689;28;20057;-74
2023/03/27 06:53:10;;;;;;;;;;;;;;;33.82;19.60;97648.53;5112839;28;19916;-74
2023/03/27 06:55:36;;;;;;;;;;;;;;;33.13;20.32;97650.84;5094868;28;19919;-74
2023/03/27 06:58:02;;;;;;;;;;;;;;;32.51;20.23;97648.88;5094433;28;19985;-73
2023/03/27 07:00:30;;;;;;;;;;;;;;;32.18;20.59;97653.25;5113381;28;19911;-73
2023/03/27 07:02:55;;;;;;;;;;;;;;;31.88;20.84;97661.31;5094902;28;19915;-76
2023/03/27 07:05:21;;;;;;;;;;;;;;;31.48;20.97;97654.28;5077801;28;19922;-74
2023/03/27 07:07:47;;;;;;;;;;;;;;;31.23;21.16;97639.09;5094369;28;19919;-76
2023/03/27 07:10:12;;;;;;;;;;;;;;;30.98;21.10;97635.44;5094682;28;20341;-76
2023/03/27 07:12:37;;;;;;;;;;;;;;;30.82;21.87;97640.03;5112793;28;20383;-75
2023/03/27 07:15:05;;;;;;;;;;;;;;;30.96;21.72;97633.03;5077612;28;19916;-75
2023/03/27 07:17:30;;;;;;;;;;;;;;;30.54;21.96;97628.06;5094865;28;19915;-74
2023/03/27 07:19:55;;;;;;;;;;;;;;;30.22;22.13;97618.38;5094566;28;20271;-74
2023/03/27 07:22:21;;;;;;;;;;;;;;;30.18;21.97;97617.34;5078049;28;20435;-73
2023/03/27 07:24:46;;;;;;;;;;;;;;;29.69;22.69;97611.41;5116943;28;20382;-73
2023/03/27 07:27:11;;;;;;;;;;;;;;;29.33;23.15;97611.38;5081345;28;19923;-74
2023/03/27 07:29:37;;;;;;;;;;;;;;;28.95;23.47;97602.66;5117270;28;19920;-73
2023/03/27 07:32:06;;;;;;;;;;;;;;;28.92;23.33;97600.50;5116518;28;19920;-74
2023/03/27 07:34:32;;;;;;;;;;;;;;;28.71;23.79;97586.22;5098638;28;19923;-74
2023/03/27 07:36:58;;;;;;;;;;;;;;;28.14;24.35;97591.28;5098478;28;19916;-74
2023/03/27 07:39:24;;;;;;;;;;;;;;;27.84;24.75;97578.44;5081111;28;19931;-74
2023/03/27 07:41:50;;;;;;;;;;;;;;;27.60;25.23;97583.34;5098386;28;19919;-73
2023/03/27 07:44:16;;;;;;;;;;;;;;;27.53;25.23;97569.34;5080791;28;20271;-73
2023/03/27 07:46:41;;;;;;;;;;;;;;;28.63;23.91;97578.69;5098091;28;19976;-71
2023/03/27 07:49:08;;;;;;;;;;;;;;;29.30;23.49;97576.19;5097401;28;19915;-71
2023/03/27 07:51:33;;;;;;;;;;;;;;;29.51;23.10;97577.81;5097485;28;19955;-73
2023/03/27 07:54:00;;;;;;;;;;;;;;;29.94;23.14;97570.28;5116112;28;20353;-73
2023/03/27 07:56:25;;;;;;;;;;;;;;;30.08;22.68;97565.16;5097708;28;19915;-72
2023/03/27 07:58:52;;;;;;;;;;;;;;;29.85;23.32;97549.59;5098216;28;20019;-75
2023/03/27 08:01:17;;;;;;;;;;;;;;;30.28;22.51;97560.78;5080803;28;20340;-73
2023/03/27 08:03:42;;;;;;;;;;;;;;;30.27;22.79;97553.81;5080648;28;19915;-74
2023/03/27 08:06:08;;;;;;;;;;;;;;;30.60;22.66;97549.66;5080389;28;19922;-73
2023/03/27 08:08:33;;;;;;;;;;;;;;;30.78;22.60;97534.75;5097628;28;19915;-75
2023/03/27 08:10:59;;;;;;;;;;;;;;;31.26;21.96;97517.22;5097849;28;19920;-74
2023/03/27 08:13:25;;;;;;;;;;;;;;;30.72;22.60;97508.13;5080674;28;19988;-75
2023/03/27 08:15:50;;;;;;;;;;;;;;;30.24;23.09;97504.00;5097529;28;20346;-76
2023/03/27 08:18:15;;;;;;;;;;;;;;;30.21;22.62;97501.88;5080488;28;19919;-75
2023/03/27 08:20:41;;;;;;;;;;;;;;;29.91;23.16;97494.72;5097168;28;19927;-73
2023/03/27 08:23:06;;;;;;;;;;;;;;;29.51;23.81;97497.16;5080182;28;20006;-73
2023/03/27 08:25:32;;;;;;;;;;;;;;;29.25;23.70;97484.81;5079834;28;20286;-74
2023/03/27 08:28:01;;;;;;;;;;;;;;;29.10;24.25;97469.44;5080215;28;19974;-75
2023/03/27 08:30:28;;;;;;;;;;;;;;;29.29;24.36;97462.50;5096684;28;20228;-74
2023/03/27 08:32:54;;;;;;;;;;;;;;;29.33;24.35;97460.88;5080128;28;20007;-74
2023/03/27 08:35:19;;;;;;;;;;;;;;;29.54;23.97;97461.69;5079354;28;19950;-75
2023/03/27 08:37:45;;;;;;;;;;;;;;;29.47;24.30;97446.91;5096995;28;19916;-74
2023/03/27 08:40:18;;;;;;;;;;;;;;;29.25;24.89;97433.75;5080012;28;19915;-75
2023/03/27 08:42:43;;;;;;;;;;;;;;;29.27;24.80;97432.44;5080073;28;20310;-77
2023/03/27 08:45:13;;;;;;;;;;;;;;;29.06;25.04;97420.84;5080106;28;19920;-76
2023/03/27 08:47:40;;;;;;;;;;;;;;;28.80;25.25;97423.53;5080137;28;19938;-75
2023/03/27 08:50:09;;;;;;;;;;;;;;;28.61;25.82;97411.69;5096931;28;19915;-75
2023/03/27 08:52:34;;;;;;;;;;;;;;;28.46;25.67;97402.50;5096708;28;20010;-76
2023/03/27 08:55:21;;;;;;;;;;;;;;;28.40;25.72;97392.84;5114859;28;20010;-75
2023/03/27 08:57:49;;;;;;;;;;;;;;;28.21;26.05;97395.22;5114732;28;20440;-73
2023/03/27 09:00:26;;;;;;;;;;;;;;;28.00;26.57;97382.81;5079879;28;19920;-73
2023/03/27 09:03:03;;;;;;;;;;;;;;;27.76;27.17;97372.50;5096222;28;19915;-76
2023/03/27 09:05:35;;;;;;;;;;;;;;;27.48;27.56;97377.16;5096516;28;19947;-75
2023/03/27 09:08:00;;;;;;;;;;;;;;;27.13;27.55;97351.75;5079475;28;19924;-73
2023/03/27 09:10:32;;;;;;;;;;;;;;;26.83;27.67;97347.78;5114545;28;20007;-74
2023/03/27 09:13:16;;;;;;;;;;;;;;;26.22;28.04;97336.53;5095954;28;19994;-73
2023/03/27 09:15:41;;;;;;;;;;;;;;;25.69;28.58;97336.19;5114582;28;20370;-74
2023/03/27 09:18:13;;;;;;;;;;;;;;;24.84;29.82;97331.81;5096969;28;19973;-75
2023/03/27 09:20:43;;;;;;;;;;;;;;;24.42;30.32;97334.03;5096368;28;20010;-76
2023/03/27 09:23:24;;;;;;;;;;;;;;;24.14;30.95;97333.81;5079151;28;20386;-73
2023/03/27 09:25:54;;;;;;;;;;;;;;;24.08;30.95;97333.94;5114155;28;19920;-73
2023/03/27 09:28:24;;;;;;;;;;;;;;;23.71;31.66;97329.75;5079104;28;19926;-73
2023/03/27 09:30:49;;;;;;;;;;;;;;;23.76;31.78;97321.06;5096080;28;20324;-73
2023/03/27 09:33:14;;;;;;;;;;;;;;;23.75;31.90;97320.25;5078866;28;19923;-73
2023/03/27 09:35:40;;;;;;;;;;;;;;;23.82;31.86;97306.81;5114485;28;19916;-74
2023/03/27 09:38:25;;;;;;;;;;;;;;;24.09;31.51;97306.25;5096306;28;20415;-75
2023/03/27 09:40:57;;;;;;;;;;;;;;;24.35;31.33;97307.50;5095613;28;19915;-77
2023/03/27 09:43:25;;;;;;;;;;;;;;;24.74;30.92;97302.28;5095888;28;19916;-73
2023/03/27 09:45:50;;;;;;;;;;;;;;;24.86;30.72;97295.00;5095357;28;19916;-73
2023/03/27 09:48:22;;;;;;;;;;;;;;;24.86;30.85;97300.34;5078476;28;19931;-74
2023/03/27 09:50:48;;;;;;;;;;;;;;;24.88;30.91;97290.22;5113853;28;19916;-73
2023/03/27 09:53:21;;;;;;;;;;;;;;;25.15;30.52;97296.75;5094797;28;20325;-74
2023/03/27 09:55:59;;;;;;;;;;;;;;;25.37;30.15;97305.63;5079213;28;19944;-73
2023/03/27 09:58:29;;;;;;;;;;;;;;;25.49;30.21;97299.34;5113506;28;19958;-74
2023/03/27 10:01:08;;;;;;;;;;;;;;;25.65;29.88;97303.81;5078542;28;20416;-73
2023/03/27 10:03:37;;;;;;;;;;;;;;;25.65;29.96;97293.13;5078250;28;19919;-73
2023/03/27 10:06:07;;;;;;;;;;;;;;;25.82;29.15;97277.00;5077529;28;19915;-75
2023/03/27 10:08:39;;;;;;;;;;;;;;;25.72;29.95;97279.59;5078451;28;19916;-71
2023/03/27 10:11:05;;;;;;;;;;;;;;;25.41;30.27;97272.03;5095538;28;19972;-73
2023/03/27 10:13:30;;;;;;;;;;;;;;;25.57;30.26;97272.19;5095459;28;20014;-72
2023/03/27 10:15:59;;;;;;;;;;;;;;;25.71;30.08;97269.94;5113112;28;19915;-73
2023/03/27 10:18:33;;;;;;;;;;;;;;;25.62;30.13;97259.69;5095578;28;20026;-73
2023/03/27 10:21:00;;;;;;;;;;;;;;;25.48;29.60;97255.00;5095488;28;19916;-75
2023/03/27 10:23:25;;;;;;;;;;;;;;;25.27;29.44;97246.72;5078147;28;20006;-73
2023/03/27 10:25:51;;;;;;;;;;;;;;;25.04;29.71;97229.06;5113301;28;19981;-73
2023/03/27 10:28:17;;;;;;;;;;;;;;;24.79;29.63;97226.84;5095156;28;19920;-73
2023/03/27 10:30:42;;;;;;;;;;;;;;;24.78;29.77;97228.72;5094995;28;19919;-73
2023/03/27 10:33:08;;;;;;;;;;;;;;;25.14;29.45;97244.41;5078734;28;19915;-76
2023/03/27 10:35:33;;;;;;;;;;;;;;;25.38;29.56;97228.97;5095065;28;19916;-74
2023/03/27 10:38:01;;;;;;;;;;;;;;;25.51;28.92;97225.91;5113148;28;20444;-74
2023/03/27 10:40:29;;;;;;;;;;;;;;;25.25;29.62;97216.75;5094560;28;19916;-74
2023/03/27 10:42:55;;;;;;;;;;;;;;;25.39;29.07;97204.66;5077674;28;19938;-73
2023/03/27 10:45:20;;;;;;;;;;;;;;;25.36;29.56;97204.38;5078068;28;19988;-74
2023/03/27 10:47:52;;;;;;;;;;;;;;;25.51;29.19;97198.38;5094486;28;19916;-75
2023/03/27 10:50:17;;;;;;;;;;;;;;;25.39;29.34;97177.97;5078074;28;19938;-75
2023/03/27 10:52:47;;;;;;;;;;;;;;;25.30;29.41;97179.47;5094505;28;20377;-73
2023/03/27 10:55:15;;;;;;;;;;;;;;;25.28;29.11;97160.22;5095916;28;19915;-75
2023/03/27 10:57:41;;;;;;;;;;;;;;;25.26;28.73;97154.31;5097090;28;19916;-73
2023/03/27 11:00:12;;;;;;;;;;;;;;;25.16;28.32;97155.00;5098931;28;19916;-74
2023/03/27 11:02:44;;;;;;;;;;;;;;;24.88;29.04;97150.66;5098328;28;20302;-73
2023/03/27 11:05:16;;;;;;;;;;;;;;;24.96;28.99;97144.88;5117078;28;19924;-73
2023/03/27 11:07:43;;;;;;;;;;;;;;;24.83;29.25;97138.06;5098833;28;19942;-73
2023/03/27 11:10:28;;;;;;;;;;;;;;;24.72;29.29;97122.97;5081760;28;19923;-74
2023/03/27 11:12:55;;;;;;;;;;;;;;;24.63;29.39;97117.25;5097852;28;19915;-74
2023/03/27 11:15:21;;;;;;;;;;;;;;;24.32;30.16;97126.66;5081547;28;20360;-73
2023/03/27 11:17:47;;;;;;;;;;;;;;;24.27;30.15;97108.72;5081012;28;19915;-72
2023/03/27 11:20:20;;;;;;;;;;;;;;;24.34;29.63;97111.25;5098622;28;19922;-72
2023/03/27 11:22:47;;;;;;;;;;;;;;;24.01;29.82;97115.56;5116601;28;19965;-72
2023/03/27 11:25:18;;;;;;;;;;;;;;;23.69;29.24;97117.94;5081459;28;19916;-74
2023/03/27 11:27:49;;;;;;;;;;;;;;;23.46;28.98;97107.16;5098306;28;20014;-73
2023/03/27 11:30:23;;;;;;;;;;;;;;;23.59;28.84;97091.94;5098625;28;19920;-72
2023/03/27 11:32:49;;;;;;;;;;;;;;;23.52;28.80;97094.75;5097833;28;20014;-71
2023/03/27 11:35:20;;;;;;;;;;;;;;;23.26;29.34;97094.31;5116593;28;19966;-76
2023/03/27 11:37:47;;;;;;;;;;;;;;;23.16;29.81;97088.81;5081561;28;19966;-72
2023/03/27 11:40:16;;;;;;;;;;;;;;;23.05;29.92;97084.31;5081120;28;19967;-73
2023/03/27 11:42:42;;;;;;;;;;;;;;;23.07;30.25;97075.06;5098172;28;19923;-74
2023/03/27 11:45:15;;;;;;;;;;;;;;;22.96;30.56;97067.91;5098252;28;20360;-75
2023/03/27 11:47:59;;;;;;;;;;;;;;;23.00;30.68;97053.09;5080288;28;20314;-75
2023/03/27 11:50:24;;;;;;;;;;;;;;;22.95;30.67;97053.00;5097464;28;20014;-74
2023/03/27 11:52:52;;;;;;;;;;;;;;;22.86;30.66;97049.91;5115979;28;20373;-74
2023/03/27 11:55:24;;;;;;;;;;;;;;;22.85;30.75;97026.19;5097975;28;19919;-77
2023/03/27 11:58:03;;;;;;;;;;;;;;;22.80;31.51;97032.22;5080835;28;19920;-73
2023/03/27 12:00:28;;;;;;;;;;;;;;;22.81;31.60;97009.13;5098522;28;20386;-74
2023/03/27 12:03:06;;;;;;;;;;;;;;;22.82;31.73;96995.56;5115835;28;19922;-74
2023/03/27 12:05:43;;;;;;;;;;;;;;;22.97;31.73;96988.91;5098129;28;19968;-76
2023/03/27 12:08:09;;;;;;;;;;;;;;;23.07;34.25;96984.56;5115138;28;20298;-74
2023/03/27 12:10:37;;;;;;;;;;;;;;;23.07;34.13;96979.25;5097303;28;19920;-79
2023/03/27 12:13:21;;;;;;;;;;;;;;;23.31;34.50;96965.84;5080563;28;19916;-77
2023/03/27 12:15:53;;;;;;;;;;;;;;;23.58;35.01;96954.53;5097394;28;19916;-75
2023/03/27 12:18:37;;;;;;;;;;;;;;;23.76;33.80;96958.75;5080423;28;20382;-76
2023/03/27 12:21:12;;;;;;;;;;;;;;;23.93;33.19;96938.25;5115766;28;19981;-74
2023/03/27 12:23:40;;;;;;;;;;;;;;;24.07;32.96;96927.19;5115945;28;19915;-75
2023/03/27 12:26:18;;;;;;;;;;;;;;;24.15;32.95;96903.59;5115337;28;19923;-76
2023/03/27 12:28:44;;;;;;;;;;;;;;;24.23;32.21;96914.84;5080195;28;19920;-78
2023/03/27 12:31:22;;;;;;;;;;;;;;;24.28;32.71;96896.28;5097056;28;20412;-77
2023/03/27 12:34:00;;;;;;;;;;;;;;;24.30;33.49;96889.63;5115431;28;19916;-76
2023/03/27 12:36:25;;;;;;;;;;;;;;;24.31;33.26;96875.25;5096981;28;19916;-76
2023/03/27 12:38:50;;;;;;;;;;;;;;;24.34;33.87;96874.75;5097037;28;19982;-76
2023/03/27 12:41:29;;;;;;;;;;;;;;;24.28;32.96;96862.41;5079631;28;19916;-79
2023/03/27 12:43:55;;;;;;;;;;;;;;;24.32;32.52;96868.84;5079747;28;19916;-79
2023/03/27 12:46:25;;;;;;;;;;;;;;;24.28;32.34;96870.41;5080081;28;19916;-78
2023/03/27 12:48:53;;;;;;;;;;;;;;;24.30;32.67;96854.16;5096853;28;19916;-79
2023/03/27 12:51:19;;;;;;;;;;;;;;;24.29;31.77;96853.38;5097233;28;19923;-75
2023/03/27 12:53:45;;;;;;;;;;;;;;;24.34;31.63;96864.06;5079371;28;20290;-79